sensor_id;sensor_type;location;lat;lon;timestamp;pressure;altitude;pressure_sealevel;temperature;humidity
64602;BME280;51013;42.630;23.192;2023-01-30T00:01:33;92496.53;;;-1.85;90.82
64602;BME280;51013;42.630;23.192;2023-01-30T00:04:00;92497.06;;;-1.77;91.18
64602;BME280;51013;42.630;23.192;2023-01-30T00:06:28;92496.03;;;-1.76;90.54
64602;BME280;51013;42.630;23.192;2023-01-30T00:08:55;92492.94;;;-1.84;90.48
64602;BME280;51013;42.630;23.192;2023-01-30T00:11:22;92496.03;;;-1.87;89.97
64602;BME280;51013;42.630;23.192;2023-01-30T00:13:49;92491.66;;;-1.81;91.26
64602;BME280;51013;42.630;23.192;2023-01-30T00:16:17;92487.56;;;-1.82;91.55
64602;BME280;51013;42.630;23.192;2023-01-30T00:18:45;92463.84;;;-1.84;90.97
64602;BME280;51013;42.630;23.192;2023-01-30T00:21:13;92346.63;;;-2.64;90.65
64602;BME280;51013;42.630;23.192;2023-01-30T00:23:40;92492.44;;;-1.75;90.32
64602;BME280;51013;42.630;23.192;2023-01-30T00:26:08;92480.59;;;-1.82;89.63
64602;BME280;51013;42.630;23.192;2023-01-30T00:28:35;92489.06;;;-1.91;87.95
64602;BME280;51013;42.630;23.192;2023-01-30T00:31:02;92479.03;;;-1.88;88.50
64602;BME280;51013;42.630;23.192;2023-01-30T00:33:29;92484.19;;;-1.83;88.42
64602;BME280;51013;42.630;23.192;2023-01-30T00:36:00;92483.94;;;-1.81;87.95
64602;BME280;51013;42.630;23.192;2023-01-30T00:38:27;92480.09;;;-1.73;88.63
64602;BME280;51013;42.630;23.192;2023-01-30T00:40:54;92489.34;;;-1.88;87.98
64602;BME280;51013;42.630;23.192;2023-01-30T00:43:20;92483.94;;;-1.71;87.34
64602;BME280;51013;42.630;23.192;2023-01-30T00:46:11;92477.00;;;-1.70;86.98
64602;BME280;51013;42.630;23.192;2023-01-30T00:48:57;92478.28;;;-1.88;87.38
64602;BME280;51013;42.630;23.192;2023-01-30T00:51:25;92471.06;;;-1.86;88.33
64602;BME280;51013;42.630;23.192;2023-01-30T00:53:52;92471.59;;;-1.84;87.81
64602;BME280;51013;42.630;23.192;2023-01-30T00:56:18;92458.69;;;-1.79;87.47
64602;BME280;51013;42.630;23.192;2023-01-30T00:58:45;92463.06;;;-1.90;88.46
64602;BME280;51013;42.630;23.192;2023-01-30T01:01:12;92459.44;;;-1.99;88.48
64602;BME280;51013;42.630;23.192;2023-01-30T01:03:38;92455.84;;;-2.08;89.29
64602;BME280;51013;42.630;23.192;2023-01-30T01:06:06;92455.31;;;-2.05;88.43
64602;BME280;51013;42.630;23.192;2023-01-30T01:08:35;92453.25;;;-2.03;88.43
64602;BME280;51013;42.630;23.192;2023-01-30T01:11:02;92452.75;;;-2.10;88.86
64602;BME280;51013;42.630;23.192;2023-01-30T01:13:30;92449.38;;;-2.21;88.79
64602;BME280;51013;42.630;23.192;2023-01-30T01:15:57;92444.75;;;-2.24;89.28
64602;BME280;51013;42.630;23.192;2023-01-30T01:18:24;92448.59;;;-2.22;89.74
64602;BME280;51013;42.630;23.192;2023-01-30T01:20:51;92447.06;;;-2.17;89.70
64602;BME280;51013;42.630;23.192;2023-01-30T01:23:17;92443.69;;;-2.23;90.50
64602;BME280;51013;42.630;23.192;2023-01-30T01:25:45;92440.66;;;-2.15;89.97
64602;BME280;51013;42.630;23.192;2023-01-30T01:28:12;92440.13;;;-2.22;89.36
64602;BME280;51013;42.630;23.192;2023-01-30T01:30:39;92446.81;;;-2.16;90.16
64602;BME280;51013;42.630;23.192;2023-01-30T01:33:07;92443.69;;;-2.23;89.33
64602;BME280;51013;42.630;23.192;2023-01-30T01:35:33;92441.41;;;-2.19;89.04
64602;BME280;51013;42.630;23.192;2023-01-30T01:38:01;92431.09;;;-2.35;88.53
64602;BME280;51013;42.630;23.192;2023-01-30T01:40:28;92438.28;;;-2.32;88.96
64602;BME280;51013;42.630;23.192;2023-01-30T01:43:18;92441.91;;;-2.33;89.15
64602;BME280;51013;42.630;23.192;2023-01-30T01:45:48;92425.66;;;-2.44;88.49
64602;BME280;51013;42.630;23.192;2023-01-30T01:48:20;92436.75;;;-2.43;89.09
64602;BME280;51013;42.630;23.192;2023-01-30T01:50:51;92433.38;;;-2.49;88.77
64602;BME280;51013;42.630;23.192;2023-01-30T01:53:20;92421.81;;;-2.41;88.99
64602;BME280;51013;42.630;23.192;2023-01-30T01:55:53;92432.38;;;-2.32;88.81
64602;BME280;51013;42.630;23.192;2023-01-30T01:58:27;92432.38;;;-2.27;87.85
64602;BME280;51013;42.630;23.192;2023-01-30T02:00:56;92422.09;;;-2.32;87.17
64602;BME280;51013;42.630;23.192;2023-01-30T02:03:25;92421.06;;;-2.21;87.24
64602;BME280;51013;42.630;23.192;2023-01-30T02:05:56;92425.44;;;-2.11;87.44
64602;BME280;51013;42.630;23.192;2023-01-30T02:08:26;92418.00;;;-2.03;86.12
64602;BME280;51013;42.630;23.192;2023-01-30T02:10:58;92427.53;;;-2.03;86.79
64602;BME280;51013;42.630;23.192;2023-01-30T02:13:28;92422.38;;;-2.03;85.58
64602;BME280;51013;42.630;23.192;2023-01-30T02:15:56;92425.47;;;-2.01;86.70
64602;BME280;51013;42.630;23.192;2023-01-30T02:18:24;92377.81;;;-2.34;85.94
64602;BME280;51013;42.630;23.192;2023-01-30T02:21:05;92403.81;;;-2.15;86.53
64602;BME280;51013;42.630;23.192;2023-01-30T02:24:13;92420.31;;;-2.01;86.36
64602;BME280;51013;42.630;23.192;2023-01-30T02:27:01;92390.97;;;-2.15;85.95
64602;BME280;51013;42.630;23.192;2023-01-30T02:33:07;92415.19;;;-2.06;85.38
64602;BME280;51013;42.630;23.192;2023-01-30T02:35:41;92419.81;;;-1.93;85.26
64602;BME280;51013;42.630;23.192;2023-01-30T02:38:22;92415.69;;;-1.94;85.45
64602;BME280;51013;42.630;23.192;2023-01-30T02:40:59;92415.16;;;-2.01;86.29
64602;BME280;51013;42.630;23.192;2023-01-30T02:43:32;92417.50;;;-2.05;86.62
64602;BME280;51013;42.630;23.192;2023-01-30T02:46:10;92331.47;;;-2.50;86.33
64602;BME280;51013;42.630;23.192;2023-01-30T02:48:43;92406.94;;;-1.98;86.06
64602;BME280;51013;42.630;23.192;2023-01-30T02:51:16;92410.81;;;-1.90;85.83
64602;BME280;51013;42.630;23.192;2023-01-30T02:53:45;92418.78;;;-1.92;85.04
64602;BME280;51013;42.630;23.192;2023-01-30T02:56:13;92416.22;;;-1.92;84.64
64602;BME280;51013;42.630;23.192;2023-01-30T02:58:42;92416.97;;;-1.91;84.50
64602;BME280;51013;42.630;23.192;2023-01-30T03:01:37;92416.47;;;-1.93;85.62
64602;BME280;51013;42.630;23.192;2023-01-30T03:04:23;92399.47;;;-2.05;85.86
64602;BME280;51013;42.630;23.192;2023-01-30T03:07:09;92427.00;;;-2.05;85.57
64602;BME280;51013;42.630;23.192;2023-01-30T03:09:44;92430.06;;;-2.24;85.30
64602;BME280;51013;42.630;23.192;2023-01-30T03:12:17;92425.22;;;-2.15;85.57
64602;BME280;51013;42.630;23.192;2023-01-30T03:14:50;92413.09;;;-2.09;86.22
64602;BME280;51013;42.630;23.192;2023-01-30T03:17:19;92415.13;;;-2.47;85.51
64602;BME280;51013;42.630;23.192;2023-01-30T03:19:49;92408.69;;;-2.29;85.83
64602;BME280;51013;42.630;23.192;2023-01-30T03:22:16;92402.50;;;-2.44;85.24
64602;BME280;51013;42.630;23.192;2023-01-30T03:24:42;92402.78;;;-2.40;85.65
64602;BME280;51013;42.630;23.192;2023-01-30T03:27:11;92392.75;;;-2.31;85.65
64602;BME280;51013;42.630;23.192;2023-01-30T03:29:42;92368.03;;;-2.43;85.71
64602;BME280;51013;42.630;23.192;2023-01-30T03:32:11;92292.88;;;-2.80;84.98
64602;BME280;51013;42.630;23.192;2023-01-30T03:34:37;92389.41;;;-2.27;85.07
64602;BME280;51013;42.630;23.192;2023-01-30T03:37:05;92382.72;;;-2.17;85.04
64602;BME280;51013;42.630;23.192;2023-01-30T03:39:32;92382.47;;;-2.06;85.29
64602;BME280;51013;42.630;23.192;2023-01-30T03:41:59;92378.63;;;-2.18;84.73
64602;BME280;51013;42.630;23.192;2023-01-30T03:44:26;92373.72;;;-2.15;84.84
64602;BME280;51013;42.630;23.192;2023-01-30T03:46:52;92373.72;;;-2.15;84.24
64602;BME280;51013;42.630;23.192;2023-01-30T03:49:19;92381.47;;;-2.15;84.07
64602;BME280;51013;42.630;23.192;2023-01-30T03:51:46;92380.88;;;-2.37;85.18
64602;BME280;51013;42.630;23.192;2023-01-30T03:54:14;92375.72;;;-2.48;85.78
64602;BME280;51013;42.630;23.192;2023-01-30T03:56:42;92367.72;;;-2.67;85.22
64602;BME280;51013;42.630;23.192;2023-01-30T03:59:09;92372.91;;;-2.46;85.66
64602;BME280;51013;42.630;23.192;2023-01-30T04:01:37;92374.44;;;-2.50;85.32
64602;BME280;51013;42.630;23.192;2023-01-30T04:04:04;92372.16;;;-2.47;85.66
64602;BME280;51013;42.630;23.192;2023-01-30T04:06:31;92379.59;;;-2.50;85.74
64602;BME280;51013;42.630;23.192;2023-01-30T04:08:57;92374.72;;;-2.42;86.22
64602;BME280;51013;42.630;23.192;2023-01-30T04:11:25;92376.78;;;-2.33;86.03
64602;BME280;51013;42.630;23.192;2023-01-30T04:13:52;92367.78;;;-2.31;85.25
64602;BME280;51013;42.630;23.192;2023-01-30T04:16:21;92370.59;;;-2.48;86.13
64602;BME280;51013;42.630;23.192;2023-01-30T04:18:48;92376.28;;;-2.40;86.25
64602;BME280;51013;42.630;23.192;2023-01-30T04:21:15;92365.97;;;-2.51;86.43
64602;BME280;51013;42.630;23.192;2023-01-30T04:23:45;92372.66;;;-2.55;86.98
64602;BME280;51013;42.630;23.192;2023-01-30T04:26:13;92377.78;;;-2.50;86.64
64602;BME280;51013;42.630;23.192;2023-01-30T04:28:43;92380.63;;;-2.62;86.88
64602;BME280;51013;42.630;23.192;2023-01-30T04:31:10;92346.63;;;-2.79;87.19
64602;BME280;51013;42.630;23.192;2023-01-30T04:33:39;92367.22;;;-2.64;87.21
64602;BME280;51013;42.630;23.192;2023-01-30T04:36:07;92369.56;;;-2.57;86.79
64602;BME280;51013;42.630;23.192;2023-01-30T04:38:35;92373.97;;;-2.37;87.31
64602;BME280;51013;42.630;23.192;2023-01-30T04:41:02;92367.78;;;-2.36;86.24
64602;BME280;51013;42.630;23.192;2023-01-30T04:43:29;92365.44;;;-2.37;86.57
64602;BME280;51013;42.630;23.192;2023-01-30T04:45:57;92372.16;;;-2.21;86.85
64602;BME280;51013;42.630;23.192;2023-01-30T04:48:26;92354.66;;;-2.24;86.76
64602;BME280;51013;42.630;23.192;2023-01-30T04:50:54;92336.41;;;-2.23;85.94
64602;BME280;51013;42.630;23.192;2023-01-30T04:53:22;92356.75;;;-2.00;85.89
64602;BME280;51013;42.630;23.192;2023-01-30T04:55:49;92357.75;;;-2.02;85.12
64602;BME280;51013;42.630;23.192;2023-01-30T04:58:16;92340.00;;;-2.08;84.46
64602;BME280;51013;42.630;23.192;2023-01-30T05:00:45;92354.16;;;-2.11;85.42
64602;BME280;51013;42.630;23.192;2023-01-30T05:03:14;92350.81;;;-2.11;85.40
64602;BME280;51013;42.630;23.192;2023-01-30T05:05:41;92346.97;;;-2.09;85.97
64602;BME280;51013;42.630;23.192;2023-01-30T05:08:09;92337.94;;;-2.11;85.76
64602;BME280;51013;42.630;23.192;2023-01-30T05:10:36;92337.16;;;-2.12;86.01
64602;BME280;51013;42.630;23.192;2023-01-30T05:13:04;92330.22;;;-2.11;86.83
64602;BME280;51013;42.630;23.192;2023-01-30T05:15:31;92337.16;;;-1.96;85.87
64602;BME280;51013;42.630;23.192;2023-01-30T05:17:58;92336.88;;;-1.95;85.65
64602;BME280;51013;42.630;23.192;2023-01-30T05:20:26;92335.63;;;-2.18;85.03
64602;BME280;51013;42.630;23.192;2023-01-30T05:22:53;92323.03;;;-2.25;85.76
64602;BME280;51013;42.630;23.192;2023-01-30T05:25:20;92344.63;;;-2.26;86.64
64602;BME280;51013;42.630;23.192;2023-01-30T05:27:46;92340.25;;;-2.20;86.72
64602;BME280;51013;42.630;23.192;2023-01-30T05:30:15;92351.84;;;-2.12;85.84
64602;BME280;51013;42.630;23.192;2023-01-30T05:32:41;92305.75;;;-2.39;85.44
64602;BME280;51013;42.630;23.192;2023-01-30T05:35:11;92341.28;;;-2.16;86.22
64602;BME280;51013;42.630;23.192;2023-01-30T05:37:42;92360.06;;;-2.05;85.93
64602;BME280;51013;42.630;23.192;2023-01-30T05:40:11;92353.13;;;-2.05;85.30
64602;BME280;51013;42.630;23.192;2023-01-30T05:42:40;92350.03;;;-2.12;85.59
64602;BME280;51013;42.630;23.192;2023-01-30T05:45:08;92350.56;;;-2.15;86.70
64602;BME280;51013;42.630;23.192;2023-01-30T05:47:34;92356.19;;;-2.23;87.23
64602;BME280;51013;42.630;23.192;2023-01-30T05:50:01;92353.63;;;-2.28;86.57
64602;BME280;51013;42.630;23.192;2023-01-30T05:52:28;92362.38;;;-2.39;87.16
64602;BME280;51013;42.630;23.192;2023-01-30T05:54:56;92359.53;;;-2.38;87.41
64602;BME280;51013;42.630;23.192;2023-01-30T05:57:22;92356.47;;;-2.40;87.14
64602;BME280;51013;42.630;23.192;2023-01-30T05:59:49;92361.09;;;-2.42;87.84
64602;BME280;51013;42.630;23.192;2023-01-30T06:02:16;92327.88;;;-2.59;87.76
64602;BME280;51013;42.630;23.192;2023-01-30T06:04:44;92365.44;;;-2.37;88.00
64602;BME280;51013;42.630;23.192;2023-01-30T06:07:11;92367.53;;;-2.19;88.02
64602;BME280;51013;42.630;23.192;2023-01-30T06:09:41;92368.06;;;-2.12;87.41
64602;BME280;51013;42.630;23.192;2023-01-30T06:12:09;92352.88;;;-2.18;86.56
64602;BME280;51013;42.630;23.192;2023-01-30T06:14:35;92350.31;;;-2.18;87.38
64602;BME280;51013;42.630;23.192;2023-01-30T06:17:02;92359.31;;;-2.16;87.23
64602;BME280;51013;42.630;23.192;2023-01-30T06:19:29;92354.41;;;-2.28;86.97
64602;BME280;51013;42.630;23.192;2023-01-30T06:21:55;92352.88;;;-2.24;87.17
64602;BME280;51013;42.630;23.192;2023-01-30T06:24:22;92348.50;;;-2.18;86.97
64602;BME280;51013;42.630;23.192;2023-01-30T06:26:49;92347.97;;;-1.99;86.70
64602;BME280;51013;42.630;23.192;2023-01-30T06:29:17;92345.13;;;-2.13;85.97
64602;BME280;51013;42.630;23.192;2023-01-30T06:31:45;92317.38;;;-2.27;85.94
64602;BME280;51013;42.630;23.192;2023-01-30T06:34:12;92347.72;;;-2.08;85.76
64602;BME280;51013;42.630;23.192;2023-01-30T06:36:39;92351.06;;;-1.97;85.61
64602;BME280;51013;42.630;23.192;2023-01-30T06:39:06;92346.94;;;-1.88;85.81
64602;BME280;51013;42.630;23.192;2023-01-30T06:41:33;92353.38;;;-1.96;85.38
64602;BME280;51013;42.630;23.192;2023-01-30T06:44:00;92353.66;;;-1.92;86.00
64602;BME280;51013;42.630;23.192;2023-01-30T06:46:28;92349.00;;;-1.95;85.09
64602;BME280;51013;42.630;23.192;2023-01-30T06:48:54;92357.78;;;-1.96;85.16
64602;BME280;51013;42.630;23.192;2023-01-30T06:51:21;92353.91;;;-1.94;85.56
64602;BME280;51013;42.630;23.192;2023-01-30T06:53:49;92358.00;;;-1.83;85.89
64602;BME280;51013;42.630;23.192;2023-01-30T06:56:16;92358.53;;;-2.01;85.54
64602;BME280;51013;42.630;23.192;2023-01-30T06:58:43;92364.97;;;-1.93;86.27
64602;BME280;51013;42.630;23.192;2023-01-30T07:01:11;92341.53;;;-1.97;86.06
64602;BME280;51013;42.630;23.192;2023-01-30T07:03:41;92358.25;;;-1.74;86.46
64602;BME280;51013;42.630;23.192;2023-01-30T07:06:08;92365.75;;;-1.98;84.57
64602;BME280;51013;42.630;23.192;2023-01-30T07:08:34;92360.84;;;-1.89;84.83
64602;BME280;51013;42.630;23.192;2023-01-30T07:11:03;92350.81;;;-1.96;84.85
64602;BME280;51013;42.630;23.192;2023-01-30T07:13:30;92368.06;;;-1.76;83.52
64602;BME280;51013;42.630;23.192;2023-01-30T07:15:57;92371.13;;;-1.79;84.43
64602;BME280;51013;42.630;23.192;2023-01-30T07:18:24;92369.84;;;-1.87;84.27
64602;BME280;51013;42.630;23.192;2023-01-30T07:20:52;92374.50;;;-1.84;83.38
64602;BME280;51013;42.630;23.192;2023-01-30T07:23:18;92379.13;;;-1.96;82.44
64602;BME280;51013;42.630;23.192;2023-01-30T07:25:48;92377.84;;;-1.93;82.41
64602;BME280;51013;42.630;23.192;2023-01-30T07:28:16;92379.63;;;-1.89;83.58
64602;BME280;51013;42.630;23.192;2023-01-30T07:30:43;92370.63;;;-1.86;82.66
64602;BME280;51013;42.630;23.192;2023-01-30T07:33:11;92381.47;;;-1.94;83.73
64602;BME280;51013;42.630;23.192;2023-01-30T07:35:37;92386.06;;;-1.91;83.75
64602;BME280;51013;42.630;23.192;2023-01-30T07:38:05;92380.16;;;-1.97;82.47
64602;BME280;51013;42.630;23.192;2023-01-30T07:40:32;92391.47;;;-1.93;82.95
64602;BME280;51013;42.630;23.192;2023-01-30T07:43:01;92390.44;;;-1.97;82.63
64602;BME280;51013;42.630;23.192;2023-01-30T07:45:33;92390.72;;;-1.83;81.57
64602;BME280;51013;42.630;23.192;2023-01-30T07:48:01;92384.53;;;-1.82;81.29
64602;BME280;51013;42.630;23.192;2023-01-30T07:50:27;92384.50;;;-1.67;81.28
64602;BME280;51013;42.630;23.192;2023-01-30T07:52:54;92384.50;;;-1.67;81.43
64602;BME280;51013;42.630;23.192;2023-01-30T07:55:22;92389.41;;;-1.65;80.81
64602;BME280;51013;42.630;23.192;2023-01-30T07:57:49;92387.06;;;-1.51;80.96
64602;BME280;51013;42.630;23.192;2023-01-30T08:00:17;92380.84;;;-1.40;81.07
64602;BME280;51013;42.630;23.192;2023-01-30T08:02:44;92376.50;;;-1.39;81.39
64602;BME280;51013;42.630;23.192;2023-01-30T08:05:13;92367.22;;;-1.46;81.19
64602;BME280;51013;42.630;23.192;2023-01-30T08:07:42;92366.44;;;-1.46;80.44
64602;BME280;51013;42.630;23.192;2023-01-30T08:10:10;92344.56;;;-1.54;80.33
64602;BME280;51013;42.630;23.192;2023-01-30T08:12:38;92358.41;;;-1.34;80.82
64602;BME280;51013;42.630;23.192;2023-01-30T08:15:06;92354.03;;;-1.29;81.03
64602;BME280;51013;42.630;23.192;2023-01-30T08:17:32;92354.34;;;-1.46;81.59
64602;BME280;51013;42.630;23.192;2023-01-30T08:19:59;92357.97;;;-1.52;81.55
64602;BME280;51013;42.630;23.192;2023-01-30T08:22:27;92355.09;;;-1.35;82.23
64602;BME280;51013;42.630;23.192;2023-01-30T08:24:53;92352.28;;;-1.44;80.95
64602;BME280;51013;42.630;23.192;2023-01-30T08:27:20;92352.25;;;-1.38;80.12
64602;BME280;51013;42.630;23.192;2023-01-30T08:29:49;92349.13;;;-1.30;81.28
64602;BME280;51013;42.630;23.192;2023-01-30T08:32:18;92342.47;;;-1.47;80.48
64602;BME280;51013;42.630;23.192;2023-01-30T08:34:47;92355.09;;;-1.50;80.13
64602;BME280;51013;42.630;23.192;2023-01-30T08:37:13;92344.81;;;-1.61;81.70
64602;BME280;51013;42.630;23.192;2023-01-30T08:39:40;92328.63;;;-1.66;82.90
64602;BME280;51013;42.630;23.192;2023-01-30T08:42:07;92334.81;;;-1.67;84.42
64602;BME280;51013;42.630;23.192;2023-01-30T08:44:33;92296.97;;;-1.87;83.67
64602;BME280;51013;42.630;23.192;2023-01-30T08:47:01;92337.91;;;-1.75;83.80
64602;BME280;51013;42.630;23.192;2023-01-30T08:49:28;92342.03;;;-1.79;83.13
64602;BME280;51013;42.630;23.192;2023-01-30T08:51:55;92334.06;;;-1.88;83.65
64602;BME280;51013;42.630;23.192;2023-01-30T08:54:22;92329.97;;;-1.94;82.46
64602;BME280;51013;42.630;23.192;2023-01-30T08:56:48;92335.59;;;-1.77;81.82
64602;BME280;51013;42.630;23.192;2023-01-30T08:59:15;92329.91;;;-1.79;81.80
64602;BME280;51013;42.630;23.192;2023-01-30T09:01:43;92330.44;;;-1.77;81.69
64602;BME280;51013;42.630;23.192;2023-01-30T09:04:11;92325.31;;;-1.82;81.20
64602;BME280;51013;42.630;23.192;2023-01-30T09:06:38;92317.59;;;-1.82;81.21
64602;BME280;51013;42.630;23.192;2023-01-30T09:09:05;92308.28;;;-1.83;82.08
64602;BME280;51013;42.630;23.192;2023-01-30T09:11:32;92309.31;;;-1.74;82.75
64602;BME280;51013;42.630;23.192;2023-01-30T09:13:59;92310.38;;;-1.80;82.56
64602;BME280;51013;42.630;23.192;2023-01-30T09:16:25;92319.88;;;-1.81;81.75
64602;BME280;51013;42.630;23.192;2023-01-30T09:18:52;92319.88;;;-1.91;81.73
64602;BME280;51013;42.630;23.192;2023-01-30T09:21:20;92323.00;;;-1.94;82.11
64602;BME280;51013;42.630;23.192;2023-01-30T09:23:48;92320.91;;;-1.87;83.45
64602;BME280;51013;42.630;23.192;2023-01-30T09:26:15;92295.44;;;-1.93;83.37
64602;BME280;51013;42.630;23.192;2023-01-30T09:28:46;92316.50;;;-1.61;83.19
64602;BME280;51013;42.630;23.192;2023-01-30T09:31:14;92313.91;;;-1.61;82.89
64602;BME280;51013;42.630;23.192;2023-01-30T09:33:40;92309.81;;;-1.62;82.87
64602;BME280;51013;42.630;23.192;2023-01-30T09:36:08;92303.84;;;-1.52;81.92
64602;BME280;51013;42.630;23.192;2023-01-30T09:38:36;92306.44;;;-1.52;81.68
64602;BME280;51013;42.630;23.192;2023-01-30T09:41:28;92306.94;;;-1.50;81.33
64602;BME280;51013;42.630;23.192;2023-01-30T09:44:13;92260.66;;;-1.86;80.69
64602;BME280;51013;42.630;23.192;2023-01-30T09:46:50;92308.25;;;-1.57;81.68
64602;BME280;51013;42.630;23.192;2023-01-30T09:49:28;92298.72;;;-1.52;81.15
64602;BME280;51013;42.630;23.192;2023-01-30T09:52:04;92287.59;;;-1.47;81.13
64602;BME280;51013;42.630;23.192;2023-01-30T09:54:36;92287.13;;;-1.65;80.78
64602;BME280;51013;42.630;23.192;2023-01-30T09:57:11;92283.31;;;-1.83;82.04
64602;BME280;51013;42.630;23.192;2023-01-30T09:59:47;92284.88;;;-1.92;82.64
64602;BME280;51013;42.630;23.192;2023-01-30T10:02:28;92283.06;;;-1.81;83.21
64602;BME280;51013;42.630;23.192;2023-01-30T10:04:59;92273.50;;;-1.81;82.30
64602;BME280;51013;42.630;23.192;2023-01-30T10:07:34;92271.19;;;-1.77;82.83
64602;BME280;51013;42.630;23.192;2023-01-30T10:10:10;92271.19;;;-1.77;81.78
64602;BME280;51013;42.630;23.192;2023-01-30T10:12:46;92263.50;;;-1.82;82.87
64602;BME280;51013;42.630;23.192;2023-01-30T10:15:27;92254.19;;;-1.68;83.36
64602;BME280;51013;42.630;23.192;2023-01-30T10:18:12;92243.63;;;-1.76;82.29
64602;BME280;51013;42.630;23.192;2023-01-30T10:20:46;92240.53;;;-1.68;82.39
64602;BME280;51013;42.630;23.192;2023-01-30T10:26:09;92229.19;;;-1.62;80.93
64602;BME280;51013;42.630;23.192;2023-01-30T10:28:39;92193.72;;;-1.86;81.15
64602;BME280;51013;42.630;23.192;2023-01-30T10:31:11;92225.03;;;-1.58;81.29
64602;BME280;51013;42.630;23.192;2023-01-30T10:33:42;92222.38;;;-1.43;80.08
64602;BME280;51013;42.630;23.192;2023-01-30T10:36:12;92192.56;;;-1.59;79.86
64602;BME280;51013;42.630;23.192;2023-01-30T10:38:44;92209.03;;;-1.50;80.07
64602;BME280;51013;42.630;23.192;2023-01-30T10:41:22;92184.59;;;-1.63;79.52
64602;BME280;51013;42.630;23.192;2023-01-30T10:43:57;92202.78;;;-1.38;79.80
64602;BME280;51013;42.630;23.192;2023-01-30T10:46:48;92194.34;;;-1.54;79.25
64602;BME280;51013;42.630;23.192;2023-01-30T10:49:30;92194.84;;;-1.47;80.57
64602;BME280;51013;42.630;23.192;2023-01-30T10:52:11;92180.34;;;-1.38;80.40
64602;BME280;51013;42.630;23.192;2023-01-30T10:54:56;92178.94;;;-1.59;79.72
64602;BME280;51013;42.630;23.192;2023-01-30T10:57:38;92164.72;;;-1.52;80.16
64602;BME280;51013;42.630;23.192;2023-01-30T11:00:16;92159.72;;;-1.38;81.29
64602;BME280;51013;42.630;23.192;2023-01-30T11:02:57;92158.56;;;-1.56;79.69
64602;BME280;51013;42.630;23.192;2023-01-30T11:05:26;92119.50;;;-1.78;81.05
64602;BME280;51013;42.630;23.192;2023-01-30T11:07:54;92137.03;;;-1.75;80.28
64602;BME280;51013;42.630;23.192;2023-01-30T11:10:26;92152.97;;;-1.68;80.63
64602;BME280;51013;42.630;23.192;2023-01-30T11:12:57;92140.78;;;-1.57;79.61
64602;BME280;51013;42.630;23.192;2023-01-30T11:15:38;91920.69;;;-3.09;78.45
64602;BME280;51013;42.630;23.192;2023-01-30T11:18:05;92145.19;;;-1.58;79.44
64602;BME280;51013;42.630;23.192;2023-01-30T11:20:38;92114.09;;;-1.77;79.32
64602;BME280;51013;42.630;23.192;2023-01-30T11:23:07;92131.44;;;-1.43;80.51
64602;BME280;51013;42.630;23.192;2023-01-30T11:25:47;92128.81;;;-1.38;78.55
64602;BME280;51013;42.630;23.192;2023-01-30T11:28:15;92105.50;;;-1.57;78.27
64602;BME280;51013;42.630;23.192;2023-01-30T11:30:48;92114.28;;;-1.58;77.66
64602;BME280;51013;42.630;23.192;2023-01-30T11:33:17;92110.91;;;-1.58;78.83
64602;BME280;51013;42.630;23.192;2023-01-30T11:35:54;92096.34;;;-1.78;78.39
64602;BME280;51013;42.630;23.192;2023-01-30T11:38:24;92110.69;;;-1.62;80.00
64602;BME280;51013;42.630;23.192;2023-01-30T11:41:02;92102.47;;;-1.64;79.46
64602;BME280;51013;42.630;23.192;2023-01-30T11:43:32;92072.38;;;-1.79;79.00
64602;BME280;51013;42.630;23.192;2023-01-30T11:45:59;92087.97;;;-1.55;80.21
64602;BME280;51013;42.630;23.192;2023-01-30T11:48:27;92092.09;;;-1.54;80.06
64602;BME280;51013;42.630;23.192;2023-01-30T11:50:58;92085.31;;;-1.45;80.42
64602;BME280;51013;42.630;23.192;2023-01-30T11:53:30;92076.59;;;-1.49;79.98
64602;BME280;51013;42.630;23.192;2023-01-30T11:56:05;92057.53;;;-1.53;80.42
64602;BME280;51013;42.630;23.192;2023-01-30T11:58:38;92068.34;;;-1.51;80.01
64602;BME280;51013;42.630;23.192;2023-01-30T12:01:08;92060.28;;;-1.39;80.12
64602;BME280;51013;42.630;23.192;2023-01-30T12:03:41;92051.78;;;-1.39;80.15
64602;BME280;51013;42.630;23.192;2023-01-30T12:06:10;92051.00;;;-1.40;80.57
64602;BME280;51013;42.630;23.192;2023-01-30T12:08:39;92023.53;;;-1.50;80.13
64602;BME280;51013;42.630;23.192;2023-01-30T12:11:28;92029.31;;;-1.34;79.99
64602;BME280;51013;42.630;23.192;2023-01-30T12:14:08;92035.44;;;-1.25;79.15
64602;BME280;51013;42.630;23.192;2023-01-30T12:16:47;92002.78;;;-1.34;79.46
64602;BME280;51013;42.630;23.192;2023-01-30T12:19:27;92032.38;;;-1.32;78.44
64602;BME280;51013;42.630;23.192;2023-01-30T12:22:00;92027.94;;;-1.21;79.01
64602;BME280;51013;42.630;23.192;2023-01-30T12:24:36;92021.47;;;-1.18;78.66
64602;BME280;51013;42.630;23.192;2023-01-30T12:27:11;92028.97;;;-0.93;77.90
64602;BME280;51013;42.630;23.192;2023-01-30T12:29:49;92022.91;;;-1.07;75.64
64602;BME280;51013;42.630;23.192;2023-01-30T12:32:22;92022.03;;;-0.97;75.85
64602;BME280;51013;42.630;23.192;2023-01-30T12:34:51;92020.41;;;-0.88;74.46
64602;BME280;51013;42.630;23.192;2023-01-30T12:37:39;92016.06;;;-0.93;75.75
64602;BME280;51013;42.630;23.192;2023-01-30T12:40:18;91979.19;;;-1.17;76.01
64602;BME280;51013;42.630;23.192;2023-01-30T12:43:05;92012.03;;;-1.04;75.60
64602;BME280;51013;42.630;23.192;2023-01-30T12:45:41;92002.78;;;-1.05;76.85
64602;BME280;51013;42.630;23.192;2023-01-30T12:48:41;92000.25;;;-1.10;76.20
64602;BME280;51013;42.630;23.192;2023-01-30T12:51:20;91995.16;;;-1.15;77.00
64602;BME280;51013;42.630;23.192;2023-01-30T12:53:58;91992.69;;;-1.31;76.95
64602;BME280;51013;42.630;23.192;2023-01-30T12:56:47;91988.88;;;-1.33;77.35
64602;BME280;51013;42.630;23.192;2023-01-30T12:59:21;91963.63;;;-1.36;76.12
64602;BME280;51013;42.630;23.192;2023-01-30T13:02:19;91985.56;;;-1.39;78.05
64602;BME280;51013;42.630;23.192;2023-01-30T13:05:05;91979.16;;;-1.42;77.63
64602;BME280;51013;42.630;23.192;2023-01-30T13:07:41;91978.56;;;-1.33;75.48
64602;BME280;51013;42.630;23.192;2023-01-30T13:10:16;91982.06;;;-1.24;76.96
64602;BME280;51013;42.630;23.192;2023-01-30T13:12:50;91981.00;;;-1.47;76.26
64602;BME280;51013;42.630;23.192;2023-01-30T13:15:32;91986.16;;;-1.47;77.63